sensor_id;sensor_type;location;lat;lon;timestamp;temperature;humidity
9820;DHT22;4949;48.482;9.206;2023-03-31T00:04:31;13.80;56.50
9820;DHT22;4949;48.482;9.206;2023-03-31T00:09:32;13.70;56.30
9820;DHT22;4949;48.482;9.206;2023-03-31T00:14:34;13.70;56.20
9820;DHT22;4949;48.482;9.206;2023-03-31T00:19:36;13.80;56.10
9820;DHT22;4949;48.482;9.206;2023-03-31T00:24:39;13.70;55.90
9820;DHT22;4949;48.482;9.206;2023-03-31T00:29:42;13.70;56.00
9820;DHT22;4949;48.482;9.206;2023-03-31T00:34:47;13.70;55.70
9820;DHT22;4949;48.482;9.206;2023-03-31T00:39:47;13.70;55.40
9820;DHT22;4949;48.482;9.206;2023-03-31T00:45:17;13.70;55.40
9820;DHT22;4949;48.482;9.206;2023-03-31T00:50:25;13.80;55.10
9820;DHT22;4949;48.482;9.206;2023-03-31T00:55:36;13.80;54.80
9820;DHT22;4949;48.482;9.206;2023-03-31T01:00:46;13.80;54.80
9820;DHT22;4949;48.482;9.206;2023-03-31T01:05:59;13.80;54.90
9820;DHT22;4949;48.482;9.206;2023-03-31T01:11:08;13.80;55.00
9820;DHT22;4949;48.482;9.206;2023-03-31T01:16:10;13.80;55.20
9820;DHT22;4949;48.482;9.206;2023-03-31T01:31:50;13.70;55.10
9820;DHT22;4949;48.482;9.206;2023-03-31T01:42:51;13.80;54.90
9820;DHT22;4949;48.482;9.206;2023-03-31T01:48:16;13.70;55.10
9820;DHT22;4949;48.482;9.206;2023-03-31T01:53:59;13.50;55.70
9820;DHT22;4949;48.482;9.206;2023-03-31T01:59:10;13.40;57.60
9820;DHT22;4949;48.482;9.206;2023-03-31T02:04:25;13.40;58.10
9820;DHT22;4949;48.482;9.206;2023-03-31T02:09:36;13.30;59.10
9820;DHT22;4949;48.482;9.206;2023-03-31T02:14:43;13.10;60.80
9820;DHT22;4949;48.482;9.206;2023-03-31T02:19:50;12.90;62.40
9820;DHT22;4949;48.482;9.206;2023-03-31T02:24:53;12.70;65.30
9820;DHT22;4949;48.482;9.206;2023-03-31T02:29:55;12.40;68.00
9820;DHT22;4949;48.482;9.206;2023-03-31T02:34:58;12.50;69.10
9820;DHT22;4949;48.482;9.206;2023-03-31T02:40:04;12.50;68.40
9820;DHT22;4949;48.482;9.206;2023-03-31T02:45:47;12.40;70.60
9820;DHT22;4949;48.482;9.206;2023-03-31T03:13:23;12.10;73.90
9820;DHT22;4949;48.482;9.206;2023-03-31T03:18:30;12.10;74.10
9820;DHT22;4949;48.482;9.206;2023-03-31T03:23:33;12.00;74.30
9820;DHT22;4949;48.482;9.206;2023-03-31T03:28:34;12.10;71.00
9820;DHT22;4949;48.482;9.206;2023-03-31T03:33:34;12.20;69.30
9820;DHT22;4949;48.482;9.206;2023-03-31T03:38:38;12.10;68.70
9820;DHT22;4949;48.482;9.206;2023-03-31T03:43:38;12.20;68.80
9820;DHT22;4949;48.482;9.206;2023-03-31T03:48:39;12.20;67.90
9820;DHT22;4949;48.482;9.206;2023-03-31T03:53:40;12.10;67.90
9820;DHT22;4949;48.482;9.206;2023-03-31T03:58:41;12.00;67.90
9820;DHT22;4949;48.482;9.206;2023-03-31T04:03:41;11.90;68.00
9820;DHT22;4949;48.482;9.206;2023-03-31T04:08:42;11.80;69.10
9820;DHT22;4949;48.482;9.206;2023-03-31T04:13:45;11.60;69.30
9820;DHT22;4949;48.482;9.206;2023-03-31T04:18:46;11.60;69.70
9820;DHT22;4949;48.482;9.206;2023-03-31T04:23:52;11.50;70.40
9820;DHT22;4949;48.482;9.206;2023-03-31T04:29:05;11.40;71.50
9820;DHT22;4949;48.482;9.206;2023-03-31T04:34:07;11.30;72.10
9820;DHT22;4949;48.482;9.206;2023-03-31T04:39:18;11.10;72.50
9820;DHT22;4949;48.482;9.206;2023-03-31T04:44:26;11.10;72.40
9820;DHT22;4949;48.482;9.206;2023-03-31T04:49:32;11.20;72.40
9820;DHT22;4949;48.482;9.206;2023-03-31T04:54:40;11.20;72.20
9820;DHT22;4949;48.482;9.206;2023-03-31T04:59:41;11.30;72.00
9820;DHT22;4949;48.482;9.206;2023-03-31T05:04:42;11.30;71.70
9820;DHT22;4949;48.482;9.206;2023-03-31T05:09:46;11.40;72.10
9820;DHT22;4949;48.482;9.206;2023-03-31T05:14:46;11.40;72.40
9820;DHT22;4949;48.482;9.206;2023-03-31T05:19:48;11.50;73.20
9820;DHT22;4949;48.482;9.206;2023-03-31T05:24:51;11.50;74.20
9820;DHT22;4949;48.482;9.206;2023-03-31T05:29:55;11.40;75.60
9820;DHT22;4949;48.482;9.206;2023-03-31T05:34:58;11.30;76.00
9820;DHT22;4949;48.482;9.206;2023-03-31T05:39:59;11.30;76.80
9820;DHT22;4949;48.482;9.206;2023-03-31T05:45:00;11.40;77.90
9820;DHT22;4949;48.482;9.206;2023-03-31T05:50:04;11.20;78.30
9820;DHT22;4949;48.482;9.206;2023-03-31T05:55:10;11.20;78.90
9820;DHT22;4949;48.482;9.206;2023-03-31T06:00:14;11.20;79.10
9820;DHT22;4949;48.482;9.206;2023-03-31T06:05:15;11.20;79.80
9820;DHT22;4949;48.482;9.206;2023-03-31T06:10:19;11.20;80.10
9820;DHT22;4949;48.482;9.206;2023-03-31T06:15:20;11.20;80.20
9820;DHT22;4949;48.482;9.206;2023-03-31T06:20:20;11.30;80.40
9820;DHT22;4949;48.482;9.206;2023-03-31T06:25:21;11.20;80.30
9820;DHT22;4949;48.482;9.206;2023-03-31T06:30:22;11.30;80.40
9820;DHT22;4949;48.482;9.206;2023-03-31T06:35:23;11.30;81.10
9820;DHT22;4949;48.482;9.206;2023-03-31T06:40:23;11.50;81.50
9820;DHT22;4949;48.482;9.206;2023-03-31T06:45:30;11.40;82.00
9820;DHT22;4949;48.482;9.206;2023-03-31T06:50:30;11.40;81.70
9820;DHT22;4949;48.482;9.206;2023-03-31T06:55:31;11.30;80.70
9820;DHT22;4949;48.482;9.206;2023-03-31T07:00:36;11.20;85.30
9820;DHT22;4949;48.482;9.206;2023-03-31T07:05:39;10.80;87.00
9820;DHT22;4949;48.482;9.206;2023-03-31T07:10:40;10.40;85.50
9820;DHT22;4949;48.482;9.206;2023-03-31T07:15:47;10.40;84.50
9820;DHT22;4949;48.482;9.206;2023-03-31T07:20:48;10.40;84.70
9820;DHT22;4949;48.482;9.206;2023-03-31T07:25:50;10.40;84.80
9820;DHT22;4949;48.482;9.206;2023-03-31T07:30:53;10.40;84.10
9820;DHT22;4949;48.482;9.206;2023-03-31T07:35:53;10.40;85.00
9820;DHT22;4949;48.482;9.206;2023-03-31T07:40:54;10.70;83.90
9820;DHT22;4949;48.482;9.206;2023-03-31T07:45:58;11.00;83.50
9820;DHT22;4949;48.482;9.206;2023-03-31T07:51:01;10.80;82.50
9820;DHT22;4949;48.482;9.206;2023-03-31T07:56:04;10.80;80.90
9820;DHT22;4949;48.482;9.206;2023-03-31T08:01:05;10.80;81.00
9820;DHT22;4949;48.482;9.206;2023-03-31T08:06:07;11.20;79.70
9820;DHT22;4949;48.482;9.206;2023-03-31T08:11:10;11.00;78.50
9820;DHT22;4949;48.482;9.206;2023-03-31T08:16:11;11.00;79.20
9820;DHT22;4949;48.482;9.206;2023-03-31T08:21:12;11.20;77.60
9820;DHT22;4949;48.482;9.206;2023-03-31T08:26:15;11.30;78.50
9820;DHT22;4949;48.482;9.206;2023-03-31T08:31:21;11.50;77.80
9820;DHT22;4949;48.482;9.206;2023-03-31T08:36:24;11.60;74.10
9820;DHT22;4949;48.482;9.206;2023-03-31T08:47:01;11.80;71.90
9820;DHT22;4949;48.482;9.206;2023-03-31T08:52:04;12.00;72.50
9820;DHT22;4949;48.482;9.206;2023-03-31T08:57:27;12.10;71.10
9820;DHT22;4949;48.482;9.206;2023-03-31T09:02:54;12.20;72.50
9820;DHT22;4949;48.482;9.206;2023-03-31T09:08:12;12.40;73.30
9820;DHT22;4949;48.482;9.206;2023-03-31T09:18:36;12.70;69.60
9820;DHT22;4949;48.482;9.206;2023-03-31T09:24:04;12.70;68.00
9820;DHT22;4949;48.482;9.206;2023-03-31T09:29:14;12.80;67.50
9820;DHT22;4949;48.482;9.206;2023-03-31T09:34:29;12.80;66.20
9820;DHT22;4949;48.482;9.206;2023-03-31T09:39:34;13.00;65.10
9820;DHT22;4949;48.482;9.206;2023-03-31T09:44:42;13.10;64.60
9820;DHT22;4949;48.482;9.206;2023-03-31T09:49:49;13.10;63.40
9820;DHT22;4949;48.482;9.206;2023-03-31T09:54:57;13.20;61.00
9820;DHT22;4949;48.482;9.206;2023-03-31T10:00:22;13.40;62.70
9820;DHT22;4949;48.482;9.206;2023-03-31T10:05:28;13.70;56.50
9820;DHT22;4949;48.482;9.206;2023-03-31T10:10:32;13.80;57.50
9820;DHT22;4949;48.482;9.206;2023-03-31T10:15:37;13.90;56.80
9820;DHT22;4949;48.482;9.206;2023-03-31T10:20:41;14.10;55.20
9820;DHT22;4949;48.482;9.206;2023-03-31T10:25:47;14.30;55.50
9820;DHT22;4949;48.482;9.206;2023-03-31T10:30:57;14.70;54.80
9820;DHT22;4949;48.482;9.206;2023-03-31T10:36:08;14.70;53.00
9820;DHT22;4949;48.482;9.206;2023-03-31T10:41:28;14.90;51.40
9820;DHT22;4949;48.482;9.206;2023-03-31T10:46:48;15.00;51.50
9820;DHT22;4949;48.482;9.206;2023-03-31T10:51:58;15.10;51.90
9820;DHT22;4949;48.482;9.206;2023-03-31T10:57:04;15.10;51.10
9820;DHT22;4949;48.482;9.206;2023-03-31T11:41:06;10.70;73.10
9820;DHT22;4949;48.482;9.206;2023-03-31T11:46:36;10.60;74.70
9820;DHT22;4949;48.482;9.206;2023-03-31T11:51:56;10.10;76.60
9820;DHT22;4949;48.482;9.206;2023-03-31T11:57:04;10.10;75.80
9820;DHT22;4949;48.482;9.206;2023-03-31T12:02:37;10.00;75.10
9820;DHT22;4949;48.482;9.206;2023-03-31T12:08:45;10.50;74.00
9820;DHT22;4949;48.482;9.206;2023-03-31T12:19:43;10.60;71.70
9820;DHT22;4949;48.482;9.206;2023-03-31T12:24:47;10.40;72.00
9820;DHT22;4949;48.482;9.206;2023-03-31T12:29:55;10.40;72.30
9820;DHT22;4949;48.482;9.206;2023-03-31T12:35:02;10.70;72.80
9820;DHT22;4949;48.482;9.206;2023-03-31T12:40:16;11.00;72.40
9820;DHT22;4949;48.482;9.206;2023-03-31T12:45:34;11.40;71.50
9820;DHT22;4949;48.482;9.206;2023-03-31T13:12:27;13.40;63.50
9820;DHT22;4949;48.482;9.206;2023-03-31T13:17:34;13.70;63.80
9820;DHT22;4949;48.482;9.206;2023-03-31T13:22:36;13.50;62.60
9820;DHT22;4949;48.482;9.206;2023-03-31T13:27:49;13.60;63.20
9820;DHT22;4949;48.482;9.206;2023-03-31T13:38:34;13.80;63.30
9820;DHT22;4949;48.482;9.206;2023-03-31T13:49:53;13.60;59.20
9820;DHT22;4949;48.482;9.206;2023-03-31T14:01:08;12.90;64.10
9820;DHT22;4949;48.482;9.206;2023-03-31T14:06:43;12.50;65.10
9820;DHT22;4949;48.482;9.206;2023-03-31T14:11:49;12.00;70.30
9820;DHT22;4949;48.482;9.206;2023-03-31T14:16:59;11.60;73.20
9820;DHT22;4949;48.482;9.206;2023-03-31T14:33:32;12.00;67.70
9820;DHT22;4949;48.482;9.206;2023-03-31T14:38:47;12.20;67.90
9820;DHT22;4949;48.482;9.206;2023-03-31T14:43:51;12.00;66.80
9820;DHT22;4949;48.482;9.206;2023-03-31T14:48:52;12.00;66.50
9820;DHT22;4949;48.482;9.206;2023-03-31T14:53:58;11.70;69.10
9820;DHT22;4949;48.482;9.206;2023-03-31T14:59:02;11.50;70.10
9820;DHT22;4949;48.482;9.206;2023-03-31T15:04:10;11.60;70.40
9820;DHT22;4949;48.482;9.206;2023-03-31T15:09:20;11.70;71.20
9820;DHT22;4949;48.482;9.206;2023-03-31T15:14:32;11.80;69.00
9820;DHT22;4949;48.482;9.206;2023-03-31T15:19:35;11.90;69.60
9820;DHT22;4949;48.482;9.206;2023-03-31T15:24:41;12.10;66.80
9820;DHT22;4949;48.482;9.206;2023-03-31T15:29:52;12.10;66.30
9820;DHT22;4949;48.482;9.206;2023-03-31T15:34:56;12.30;65.80
9820;DHT22;4949;48.482;9.206;2023-03-31T15:39:59;12.10;64.90
9820;DHT22;4949;48.482;9.206;2023-03-31T15:50:31;12.00;64.00
9820;DHT22;4949;48.482;9.206;2023-03-31T15:55:41;11.90;63.50
9820;DHT22;4949;48.482;9.206;2023-03-31T16:00:44;11.80;62.90
9820;DHT22;4949;48.482;9.206;2023-03-31T16:05:54;11.70;64.00
9820;DHT22;4949;48.482;9.206;2023-03-31T16:11:00;11.60;64.40
9820;DHT22;4949;48.482;9.206;2023-03-31T16:16:07;11.80;63.80
9820;DHT22;4949;48.482;9.206;2023-03-31T16:21:10;11.70;64.20
9820;DHT22;4949;48.482;9.206;2023-03-31T16:26:20;11.70;64.00
9820;DHT22;4949;48.482;9.206;2023-03-31T16:31:30;11.70;63.80
9820;DHT22;4949;48.482;9.206;2023-03-31T16:36:38;11.80;63.40
9820;DHT22;4949;48.482;9.206;2023-03-31T16:41:39;11.70;63.20
9820;DHT22;4949;48.482;9.206;2023-03-31T16:46:43;11.60;66.90
9820;DHT22;4949;48.482;9.206;2023-03-31T16:51:48;11.30;71.00
9820;DHT22;4949;48.482;9.206;2023-03-31T16:56:49;11.10;74.90
9820;DHT22;4949;48.482;9.206;2023-03-31T17:01:52;10.90;75.50
9820;DHT22;4949;48.482;9.206;2023-03-31T17:06:53;10.80;74.40
9820;DHT22;4949;48.482;9.206;2023-03-31T17:11:54;10.90;75.40
9820;DHT22;4949;48.482;9.206;2023-03-31T17:16:57;11.00;73.00
9820;DHT22;4949;48.482;9.206;2023-03-31T17:21:58;11.10;73.20
9820;DHT22;4949;48.482;9.206;2023-03-31T17:27:02;11.10;73.90
9820;DHT22;4949;48.482;9.206;2023-03-31T17:32:06;10.90;73.70
9820;DHT22;4949;48.482;9.206;2023-03-31T17:37:10;10.80;74.50
9820;DHT22;4949;48.482;9.206;2023-03-31T17:42:15;10.80;74.70
9820;DHT22;4949;48.482;9.206;2023-03-31T17:47:19;10.70;73.80
9820;DHT22;4949;48.482;9.206;2023-03-31T17:52:20;10.70;73.30
9820;DHT22;4949;48.482;9.206;2023-03-31T17:57:23;10.70;73.50
9820;DHT22;4949;48.482;9.206;2023-03-31T18:02:23;10.50;73.70
9820;DHT22;4949;48.482;9.206;2023-03-31T18:07:24;10.40;74.00
9820;DHT22;4949;48.482;9.206;2023-03-31T18:12:25;10.40;74.10
9820;DHT22;4949;48.482;9.206;2023-03-31T18:17:28;10.30;74.30
9820;DHT22;4949;48.482;9.206;2023-03-31T18:22:29;10.30;74.70
9820;DHT22;4949;48.482;9.206;2023-03-31T18:27:30;10.40;73.70
9820;DHT22;4949;48.482;9.206;2023-03-31T18:32:32;10.40;71.90
9820;DHT22;4949;48.482;9.206;2023-03-31T18:37:34;10.50;72.00
9820;DHT22;4949;48.482;9.206;2023-03-31T18:42:35;10.40;72.90
9820;DHT22;4949;48.482;9.206;2023-03-31T18:47:37;10.30;74.80
9820;DHT22;4949;48.482;9.206;2023-03-31T18:52:42;10.50;73.30
9820;DHT22;4949;48.482;9.206;2023-03-31T18:57:46;10.40;71.70
9820;DHT22;4949;48.482;9.206;2023-03-31T19:02:47;10.40;72.20
9820;DHT22;4949;48.482;9.206;2023-03-31T19:07:48;10.40;71.50
9820;DHT22;4949;48.482;9.206;2023-03-31T19:12:51;10.50;70.50
9820;DHT22;4949;48.482;9.206;2023-03-31T19:17:55;10.40;69.80
9820;DHT22;4949;48.482;9.206;2023-03-31T19:22:56;10.40;68.90
9820;DHT22;4949;48.482;9.206;2023-03-31T19:27:57;10.40;68.90
9820;DHT22;4949;48.482;9.206;2023-03-31T19:32:57;10.40;69.00
9820;DHT22;4949;48.482;9.206;2023-03-31T19:38:02;10.30;69.40
9820;DHT22;4949;48.482;9.206;2023-03-31T19:43:03;10.40;68.50
9820;DHT22;4949;48.482;9.206;2023-03-31T19:48:06;10.40;68.60
9820;DHT22;4949;48.482;9.206;2023-03-31T19:53:07;10.50;67.80
9820;DHT22;4949;48.482;9.206;2023-03-31T19:58:10;10.40;67.80
9820;DHT22;4949;48.482;9.206;2023-03-31T20:03:12;10.50;67.50
9820;DHT22;4949;48.482;9.206;2023-03-31T20:08:17;10.50;67.30
9820;DHT22;4949;48.482;9.206;2023-03-31T20:13:18;10.60;66.80
9820;DHT22;4949;48.482;9.206;2023-03-31T20:18:21;10.70;67.30
9820;DHT22;4949;48.482;9.206;2023-03-31T20:23:22;10.70;66.20
9820;DHT22;4949;48.482;9.206;2023-03-31T20:28:25;10.60;66.40
9820;DHT22;4949;48.482;9.206;2023-03-31T20:33:26;10.80;65.30
9820;DHT22;4949;48.482;9.206;2023-03-31T20:38:27;10.80;66.70
9820;DHT22;4949;48.482;9.206;2023-03-31T20:43:28;10.70;67.20
9820;DHT22;4949;48.482;9.206;2023-03-31T20:48:47;10.60;69.20
9820;DHT22;4949;48.482;9.206;2023-03-31T20:53:51;10.40;71.60
9820;DHT22;4949;48.482;9.206;2023-03-31T20:58:53;10.30;71.90
9820;DHT22;4949;48.482;9.206;2023-03-31T21:03:58;10.30;71.80
9820;DHT22;4949;48.482;9.206;2023-03-31T21:09:02;10.20;72.20
9820;DHT22;4949;48.482;9.206;2023-03-31T21:14:03;10.20;72.00
9820;DHT22;4949;48.482;9.206;2023-03-31T21:19:05;10.20;71.50
9820;DHT22;4949;48.482;9.206;2023-03-31T21:24:07;10.20;70.70
9820;DHT22;4949;48.482;9.206;2023-03-31T21:29:08;10.30;70.50
9820;DHT22;4949;48.482;9.206;2023-03-31T21:34:11;10.20;69.10
9820;DHT22;4949;48.482;9.206;2023-03-31T21:39:12;10.40;69.40
9820;DHT22;4949;48.482;9.206;2023-03-31T21:44:13;10.30;68.50
9820;DHT22;4949;48.482;9.206;2023-03-31T21:49:14;10.10;67.90
9820;DHT22;4949;48.482;9.206;2023-03-31T21:54:15;10.10;66.80
9820;DHT22;4949;48.482;9.206;2023-03-31T21:59:18;10.10;65.70
9820;DHT22;4949;48.482;9.206;2023-03-31T22:04:21;10.20;64.80
9820;DHT22;4949;48.482;9.206;2023-03-31T22:09:23;10.10;65.40
9820;DHT22;4949;48.482;9.206;2023-03-31T22:14:25;10.20;64.70
9820;DHT22;4949;48.482;9.206;2023-03-31T22:19:26;10.20;65.20
9820;DHT22;4949;48.482;9.206;2023-03-31T22:24:29;10.10;66.10
9820;DHT22;4949;48.482;9.206;2023-03-31T22:29:31;10.20;65.50
9820;DHT22;4949;48.482;9.206;2023-03-31T22:34:32;10.20;66.30
9820;DHT22;4949;48.482;9.206;2023-03-31T22:39:33;10.20;67.20
9820;DHT22;4949;48.482;9.206;2023-03-31T22:44:36;10.20;67.70
9820;DHT22;4949;48.482;9.206;2023-03-31T22:49:41;10.10;68.50
9820;DHT22;4949;48.482;9.206;2023-03-31T22:54:42;10.10;69.30
9820;DHT22;4949;48.482;9.206;2023-03-31T22:59:46;10.00;71.80
9820;DHT22;4949;48.482;9.206;2023-03-31T23:04:47;10.00;72.70
9820;DHT22;4949;48.482;9.206;2023-03-31T23:09:48;9.80;74.40
9820;DHT22;4949;48.482;9.206;2023-03-31T23:14:48;9.80;74.30
9820;DHT22;4949;48.482;9.206;2023-03-31T23:19:49;9.70;75.20
9820;DHT22;4949;48.482;9.206;2023-03-31T23:24:52;9.60;75.00
9820;DHT22;4949;48.482;9.206;2023-03-31T23:29:53;9.70;75.40
9820;DHT22;4949;48.482;9.206;2023-03-31T23:34:56;9.90;75.40
9820;DHT22;4949;48.482;9.206;2023-03-31T23:39:57;9.80;74.80
9820;DHT22;4949;48.482;9.206;2023-03-31T23:44:58;9.90;73.60
9820;DHT22;4949;48.482;9.206;2023-03-31T23:50:01;9.90;73.90
9820;DHT22;4949;48.482;9.206;2023-03-31T23:55:02;9.80;73.20
